Latest Weather Observations for Friendly Beaches

IDT60801

Issued at 11:31 pm EST Saturday 29 April 2017 (issued every 30 minutes, with the page automatically refreshed every 10 minutes)

About weather observations | Map of weather stations | Latest weather observations for TAS | Other Formats
Station Details ID: 092114 Name: FRIENDLY BEACHES Lat: -42.00 Lon: 148.28 Height: 55.0 m
Data from the previous 72 hours. | See also: Recent months at Friendly Beaches
Date/Time
EST
Temp
°C
App
Temp
°C
Dew
Point
°C
Rel
Hum
%
Delta-T
°C
Wind Press
QNH
hPa
Press
MSL
hPa
Rain since
9am
mm
Dir  Spd
km/h
Gust
km/h
Spd
kts
Gust
kts
29/11:30pm 12.7 11.9 10.9 89 0.9 NW 6 6 3 3 1021.9 1021.8 0.0
29/11:00pm 12.6 11.8 11.0 90 0.8 NNW 6 7 3 4 1021.7 1021.6 0.0
29/10:30pm 12.7 12.2 10.9 89 0.9 NNW 4 6 2 3 1021.9 1021.8 0.0
29/10:00pm 12.8 12.4 11.0 89 0.9 NW 4 4 2 2 1021.9 1021.8 0.0
29/09:30pm 12.9 13.3 11.1 89 0.9 CALM 0 0 0 0 1021.7 1021.6 0.0
29/09:00pm 12.8 12.8 11.2 90 0.8 NNW 2 4 1 2 1021.6 1021.5 0.0
29/08:30pm 12.9 13.2 10.8 87 1.1 CALM 0 0 0 0 1021.3 1021.2 0.0
29/08:00pm 12.9 13.2 10.8 87 1.1 CALM 0 0 0 0 1021.1 1021.0 0.0
29/07:30pm 13.1 13.3 10.6 85 1.3 CALM 0 2 0 1 1021.0 1020.9 0.0
29/07:00pm 13.3 11.9 10.8 85 1.3 SSE 9 15 5 8 1020.8 1020.7 0.0
29/06:30pm 13.2 12.2 10.9 86 1.2 S 7 13 4 7 1020.4 1020.3 0.0
29/06:00pm 13.1 11.3 11.0 87 1.1 SSE 11 22 6 12 1019.8 1019.8 0.0
29/05:30pm 13.3 9.9 11.4 88 1.0 SSE 20 30 11 16 1019.3 1019.3 0.0
29/05:00pm 13.5 10.1 11.2 86 1.2 SSE 20 28 11 15 1018.8 1018.8 0.0
29/04:30pm 14.3 10.4 10.9 80 1.8 SE 22 32 12 17 1018.4 1018.4 0.0
29/04:00pm 15.0 11.5 11.0 77 2.1 SE 20 28 11 15 1018.0 1018.0 0.0
29/03:30pm 16.0 12.4 10.7 71 2.8 SE 20 28 11 15 1017.6 1017.6 0.0
29/03:00pm 16.7 13.2 10.3 66 3.4 SE 19 26 10 14 1017.2 1017.2 0.0
29/02:30pm 17.9 15.8 11.2 65 3.6 SE 13 24 7 13 1016.9 1016.9 0.0
29/02:00pm 19.0 17.1 8.9 52 5.3 SSE 9 19 5 10 1016.7 1016.7 0.0
29/01:30pm 18.5 15.9 7.6 49 5.5 SSW 11 20 6 11 1016.5 1016.5 0.0
29/01:00pm 19.0 16.5 8.4 50 5.5 S 11 20 6 11 1016.5 1016.5 0.0
29/12:30pm 17.9 14.3 8.2 53 5.0 SSW 17 28 9 15 1016.5 1016.5 0.0
29/12:00pm 17.9 13.9 8.2 53 5.0 SSW 19 28 10 15 1016.6 1016.6 0.0
29/11:30am 17.5 14.3 8.6 56 4.6 SW 15 22 8 12 1016.8 1016.8 0.0
29/11:00am 16.7 13.1 8.4 58 4.2 SSW 17 26 9 14 1016.5 1016.5 0.0
29/10:30am 17.0 13.4 8.2 56 4.5 WSW 17 28 9 15 1015.9 1015.9 0.0
29/10:00am 16.7 12.7 8.1 57 4.4 WSW 19 32 10 17 1015.5 1015.5 0.0
29/09:30am 16.0 12.4 8.2 60 4.0 WSW 17 26 9 14 1015.2 1015.2 0.0
29/09:00am 15.2 13.1 8.2 63 3.5 W 9 15 5 8 1015.2 1015.2 0.0
29/08:30am 14.6 13.2 9.0 69 2.9 WSW 6 11 3 6 1014.8 1014.8 0.0
29/08:00am 13.1 11.4 8.2 72 2.4 WSW 7 13 4 7 1014.6 1014.6 0.0
29/07:30am 12.6 10.4 7.9 73 2.3 WSW 9 13 5 7 1014.2 1014.2 0.0
29/07:00am 12.4 9.8 7.7 73 2.3 WSW 11 17 6 9 1013.6 1013.6 0.0
29/06:30am 12.8 9.7 7.3 69 2.7 WSW 13 22 7 12 1013.1 1013.1 0.0
29/06:00am 13.2 10.5 7.4 68 2.8 WSW 11 20 6 11 1012.7 1012.7 0.0
29/05:30am 13.6 9.5 8.0 69 2.8 WSW 19 32 10 17 1012.3 1012.3 0.0
29/05:00am 12.1 10.4 9.7 85 1.2 W 9 13 5 7 1012.1 1012.1 0.0
29/04:30am 13.2 11.1 9.6 79 1.8 W 11 24 6 13 1011.4 1011.4 0.0
29/04:00am 13.1 10.6 9.7 80 1.7 WNW 13 19 7 10 1011.3 1011.3 0.0
29/03:30am 12.9 11.2 9.9 82 1.5 WNW 9 13 5 7 1011.1 1011.1 0.0
29/03:00am 12.9 11.8 9.9 82 1.5 WNW 6 11 3 6 1011.2 1011.2 0.0
29/02:30am 13.5 13.1 9.7 78 2.0 WNW 2 6 1 3 1011.2 1011.2 0.0
29/02:00am 14.4 13.1 9.8 74 2.4 WNW 7 13 4 7 1011.2 1011.2 0.0
29/01:30am 15.3 13.1 9.4 68 3.0 W 11 26 6 14 1011.0 1011.0 0.0
29/01:00am 15.3 12.7 9.4 68 3.1 W 13 20 7 11 1011.0 1011.0 0.0
29/12:30am 15.3 12.7 9.2 67 3.1 WNW 13 20 7 11 1010.9 1010.9 0.0
29/12:00am 15.4 12.0 9.3 67 3.2 WNW 17 33 9 18 1010.7 1010.7 0.0
 
Date/Time
EST
Temp
°C
App
Temp
°C
Dew
Point
°C
Rel
Hum
%
Delta-T
°C
Wind Press
QNH
hPa
Press
MSL
hPa
Rain since
9am
mm
Dir  Spd
km/h
Gust
km/h
Spd
kts
Gust
kts
28/11:30pm 15.3 11.0 9.4 68 3.0 WNW 22 37 12 20 1010.4 1010.4 0.0
28/11:00pm 15.4 11.5 9.5 68 3.1 WNW 20 32 11 17 1010.9 1010.9 0.0
28/10:30pm 15.4 12.0 9.3 67 3.1 W 17 26 9 14 1011.2 1011.2 0.0
28/10:00pm 15.4 12.0 9.1 66 3.2 WNW 17 32 9 17 1011.3 1011.3 0.0
28/09:30pm 15.3 12.6 9.0 66 3.2 WNW 13 22 7 12 1011.3 1011.3 0.0
28/09:00pm 15.3 12.2 8.8 65 3.3 WNW 15 28 8 15 1011.2 1011.2 0.0
28/08:30pm 15.4 12.2 8.4 63 3.5 WNW 15 28 8 15 1011.2 1011.2 0.0
28/08:00pm 15.5 11.8 8.0 61 3.8 WNW 17 32 9 17 1011.6 1011.6 0.0
28/07:30pm 15.1 12.6 8.3 64 3.4 W 11 17 6 9 1011.9 1011.9 0.0
28/07:00pm 15.6 12.3 8.1 61 3.8 W 15 26 8 14 1011.5 1011.5 0.0
28/06:30pm 16.1 12.1 8.3 60 4.0 WNW 19 35 10 19 1011.4 1011.4 0.0
28/06:00pm 15.8 13.8 8.8 63 3.6 WNW 9 17 5 9 1011.1 1011.1 0.0
28/05:30pm 16.3 14.8 9.0 62 3.8 WSW 7 13 4 7 1011.2 1011.2 0.0
28/05:00pm 16.8 15.1 8.5 58 4.3 W 7 15 4 8 1010.9 1010.9 0.0
28/04:30pm 18.1 16.2 9.2 56 4.7 W 9 15 5 8 1010.7 1010.7 0.0
28/04:00pm 17.1 16.5 12.4 74 2.6 S 7 9 4 5 1010.8 1010.8 0.0
28/03:30pm 18.0 18.4 12.5 70 3.1 ESE 2 6 1 3 1010.8 1010.8 0.0
28/03:00pm 18.4 16.9 11.9 66 3.6 NNE 11 19 6 10 1010.9 1010.9 0.0
28/02:30pm 18.9 17.5 12.2 65 3.7 NE 11 17 6 9 1011.1 1011.1 0.0
28/02:00pm 18.8 16.8 11.6 63 4.0 NE 13 17 7 9 1011.4 1011.4 0.0
28/01:30pm 19.2 17.2 11.5 61 4.2 NNE 13 20 7 11 1011.6 1011.6 0.0
28/01:00pm 19.2 18.9 14.5 74 2.7 NNE 9 11 5 6 1012.3 1012.3 0.0
28/12:30pm 16.6 15.6 12.2 75 2.4 NNE 9 15 5 8 1013.0 1013.0 0.0
28/12:00pm 16.6 15.2 12.2 75 2.4 NNE 11 19 6 10 1013.7 1013.7 0.0
28/11:30am 17.5 16.7 12.8 74 2.6 NE 9 19 5 10 1014.2 1014.2 0.0
28/11:00am 17.1 15.2 10.5 65 3.5 NNE 11 17 6 9 1014.7 1014.7 0.0
28/10:30am 16.7 15.8 10.5 67 3.3 NNE 6 11 3 6 1015.1 1015.1 0.0
28/10:00am 16.9 15.7 10.3 65 3.5 N 7 13 4 7 1015.2 1015.2 0.0
28/09:30am 16.0 15.3 9.9 67 3.2 NNW 4 9 2 5 1015.4 1015.4 0.0
28/09:00am 13.9 13.9 9.7 76 2.2 CALM 0 0 0 0 1015.7 1015.7 0.0
28/08:30am 12.4 12.3 9.6 83 1.4 CALM 0 0 0 0 1015.7 1015.7 0.0
28/08:00am 10.4 10.0 8.3 87 1.0 CALM 0 0 0 0 1015.7 1015.7 0.0
28/07:30am 8.1 7.3 6.6 90 0.7 CALM 0 4 0 2 1015.6 1015.6 0.0
28/07:00am 8.2 6.3 6.8 91 0.6 NNW 6 9 3 5 1015.4 1015.4 0.0
28/06:30am 7.5 5.4 6.0 90 0.7 NW 6 7 3 4 1015.2 1015.2 0.0
28/06:00am 7.4 5.7 5.9 90 0.7 NW 4 6 2 3 1015.0 1015.0 0.0
28/05:30am 8.8 7.4 7.3 90 0.7 NNW 4 6 2 3 1014.8 1014.8 0.0
28/05:00am 7.2 4.9 5.7 90 0.7 NW 7 9 4 5 1014.7 1014.7 0.0
28/04:30am 8.2 6.1 5.8 85 1.1 WNW 6 9 3 5 1014.6 1014.6 0.0
28/04:00am 8.8 8.1 6.8 87 0.9 CALM 0 0 0 0 1014.4 1014.4 0.0
28/03:30am 9.1 8.3 6.4 83 1.3 CALM 0 0 0 0 1014.2 1014.2 0.0
28/03:00am 9.1 7.4 6.0 81 1.4 NNW 4 6 2 3 1014.0 1014.0 0.0
28/02:30am 9.3 7.3 6.2 81 1.4 NNW 6 9 3 5 1014.0 1014.0 0.0
28/02:00am 9.2 7.2 6.1 81 1.4 N 6 7 3 4 1014.1 1014.1 0.0
28/01:30am 9.0 8.1 6.1 82 1.3 CALM 0 4 0 2 1014.3 1014.3 0.0
28/01:00am 9.4 8.0 5.6 77 1.7 ESE 2 6 1 3 1014.3 1014.3 0.0
28/12:30am 9.9 7.7 5.5 74 2.0 NNW 6 9 3 5 1014.5 1014.5 0.0
28/12:00am 9.9 7.2 5.5 74 2.0 NNW 9 13 5 7 1014.6 1014.6 0.0
 
Date/Time
EST
Temp
°C
App
Temp
°C
Dew
Point
°C
Rel
Hum
%
Delta-T
°C
Wind Press
QNH
hPa
Press
MSL
hPa
Rain since
9am
mm
Dir  Spd
km/h
Gust
km/h
Spd
kts
Gust
kts
27/11:30pm 10.2 7.4 5.2 71 2.3 NNW 9 13 5 7 1014.7 1014.7 0.0
27/11:00pm 9.7 7.3 4.5 70 2.3 NNW 6 9 3 5 1015.0 1015.0 0.0
27/10:30pm 9.7 7.2 3.9 67 2.6 NNW 6 7 3 4 1015.3 1015.3 0.0
27/10:00pm 10.8 8.2 4.0 63 3.0 NNW 7 11 4 6 1015.1 1015.1 0.0
27/09:30pm 10.6 7.9 3.6 62 3.1 NNW 7 13 4 7 1015.2 1015.2 0.0
27/09:00pm 10.9 7.0 3.2 59 3.4 N 13 19 7 10 1015.4 1015.4 0.0
27/08:30pm 10.9 7.0 3.2 59 3.4 N 13 19 7 10 1015.5 1015.5 0.0
27/08:00pm 10.6 7.0 3.2 60 3.2 N 11 17 6 9 1015.7 1015.7 0.0
27/07:30pm 10.3 7.6 3.6 63 2.9 N 7 9 4 5 1016.1 1016.1 0.0
27/07:00pm 9.6 6.8 3.4 65 2.7 N 7 9 4 5 1016.0 1016.0 0.0
27/06:30pm 9.4 6.8 3.2 65 2.7 NNW 6 7 3 4 1016.5 1016.5 0.0
27/06:00pm 9.8 7.1 3.5 65 2.7 NW 7 9 4 5 1016.4 1016.4 0.0
27/05:30pm 10.1 7.4 3.6 64 2.8 NW 7 9 4 5 1016.4 1016.4 0.0
27/05:00pm 11.0 8.6 4.2 63 3.0 WNW 6 7 3 4 1016.3 1016.3 0.0
27/04:30pm 12.3 9.5 5.0 61 3.4 W 9 15 5 8 1016.4 1016.4 0.0
27/04:00pm 12.5 8.7 4.0 56 3.8 W 13 19 7 10 1016.5 1016.5 0.0
27/03:30pm 13.0 10.8 5.4 60 3.6 WSW 6 11 3 6 1016.3 1016.3 0.0
27/03:00pm 12.8 9.7 3.7 54 4.1 W 9 17 5 9 1015.9 1015.9 0.0
27/02:30pm 13.3 9.9 4.2 54 4.2 W 11 19 6 10 1015.9 1015.9 0.0
27/02:00pm 12.5 8.9 3.2 53 4.1 WSW 11 20 6 11 1016.4 1016.4 0.0
27/01:30pm 13.4 9.6 4.0 53 4.3 SW 13 24 7 13 1017.0 1017.0 0.0
27/01:00pm 13.1 9.3 3.7 53 4.2 WSW 13 20 7 11 1017.2 1017.2 0.0
27/12:30pm 12.8 9.0 4.0 55 4.0 WSW 13 20 7 11 1017.6 1017.6 0.0
27/12:00pm 12.9 9.3 4.8 58 3.7 SW 13 24 7 13 1018.5 1018.5 0.0
27/11:30am 12.2 7.9 5.4 63 3.2 WSW 17 30 9 16 1018.3 1018.3 0.0
27/11:00am 11.9 8.1 3.9 58 3.6 SW 13 26 7 14 1018.7 1018.7 0.0
27/10:30am 11.0 7.4 2.8 57 3.6 WSW 11 20 6 11 1018.5 1018.5 0.0
27/10:00am 10.2 6.2 3.0 61 3.1 WSW 13 24 7 13 1018.6 1018.6 0.0
27/09:30am 9.3 5.6 4.7 73 2.1 WSW 13 20 7 11 1018.8 1018.8 0.0
27/09:00am 8.4 5.0 5.7 83 1.2 WSW 13 20 7 11 1019.0 1019.0 0.6
27/08:30am 7.4 4.3 3.6 77 1.6 W 9 17 5 9 1018.8 1018.8 0.6
27/08:00am 6.1 2.5 3.1 81 1.2 W 11 17 6 9 1018.4 1018.4 0.6
27/07:30am 5.3 1.2 2.5 82 1.1 W 13 20 7 11 1018.3 1018.3 0.6
27/07:00am 5.1 0.6 2.3 82 1.1 W 15 22 8 12 1018.2 1018.2 0.6
27/06:30am 4.9 0.5 2.8 86 0.9 W 15 24 8 13 1018.2 1018.2 0.6
27/06:00am 4.7 0.3 2.7 87 0.8 WSW 15 20 8 11 1018.1 1018.1 0.6
27/05:30am 4.5 0.0 2.0 84 1.0 W 15 22 8 12 1017.9 1017.9 0.6
27/05:00am 4.9 1.2 4.6 98 0.1 W 13 19 7 10 1017.6 1017.6 0.6
27/04:30am 5.6 1.4 3.6 87 0.8 W 15 22 8 12 1017.1 1017.1 0.6
27/04:00am 5.4 1.2 3.7 89 0.7 W 15 24 8 13 1016.8 1016.8 0.6
27/03:30am 5.5 1.7 3.8 89 0.7 W 13 24 7 13 1016.8 1016.8 0.6
27/03:00am 5.6 1.9 4.7 94 0.4 WSW 13 19 7 10 1017.0 1017.0 0.6
27/02:30am 6.1 2.4 6.1 100 0.0 W 15 22 8 12 1017.1 1017.1 0.6
27/02:00am 6.2 2.0 4.0 86 0.9 WSW 15 24 8 13 1017.5 1017.5 0.6
27/01:30am 6.5 2.4 4.3 86 0.9 W 15 26 8 14 1017.2 1017.2 0.6
27/01:00am 6.7 2.5 3.9 82 1.2 W 15 22 8 12 1016.9 1016.9 0.6
27/12:30am 6.7 2.5 3.7 81 1.3 WSW 15 20 8 11 1016.7 1016.7 0.6
27/12:00am 7.0 3.1 5.2 88 0.8 WSW 15 22 8 12 1016.4 1016.4 0.6

Other Formats:

Comma delimited format used in spreadsheet applications
http://www.bom.gov.au/fwo/IDT60801/IDT60801.94987.axf

JavaScript Object Notation format (JSON) in row-major order
http://www.bom.gov.au/fwo/IDT60801/IDT60801.94987.json